Nesenie raksti

Ziņas

Par Gliding.lv

Gliding.lv ir interneta vietne par planieriem un planierismu. Šeit būs atrodama informācija par iespējām pamēģināt, iesaistīties un organizēt planierisma aktivitātes. Izmanto Gliding.lv forumu, ja Tev ir kāda tēma diskusijai vai jautājums. Gliding.lv merķis ir informēt un apvienot planierisma interesentus, nodrošinot un apmainoties ar aktuālāko un arī bijušo. Lidojam!

Laiks Rīgā
2°
overcast clouds
mitrums: 74%
vējš: 3m/s RDR
Aug 2 • Zem 1
3°
Svē
3°
Pir
2°
Otr
5°
Tre
Meteo-dati no OpenWeatherMap

METAR

EVRA 231450Z 26004KT 210V340 9999 OVC020 02/M02 Q1034 R18/490295 NOSIG

EVLA 231450Z AUTO 25016KT 9999 OVC018/// 03/00 Q1036

EVVA 231450Z AUTO 25012KT 9999 OVC013 02/00 Q1035

Nesenie raksti

Pāriet uz rīkjoslu